createdAt,value
2017-09-24T00:02:06.088Z,13.40
2017-09-24T00:07:26.048Z,13.30
2017-09-24T00:09:52.292Z,13.10
2017-09-24T00:12:18.528Z,13.10
2017-09-24T00:14:45.006Z,12.90
2017-09-24T00:17:11.244Z,12.90
2017-09-24T00:19:37.474Z,12.90
2017-09-24T00:22:03.977Z,12.90
2017-09-24T00:24:31.004Z,12.90
2017-09-24T00:26:57.321Z,12.90
2017-09-24T00:29:23.917Z,13.00
2017-09-24T00:31:50.207Z,13.00
2017-09-24T00:34:16.435Z,13.10
2017-09-24T00:36:43.145Z,13.10
2017-09-24T00:39:09.404Z,13.00
2017-09-24T00:41:35.568Z,13.10
2017-09-24T00:44:01.960Z,13.10
2017-09-24T00:46:28.182Z,13.10
2017-09-24T00:48:54.485Z,13.10
2017-09-24T00:51:21.097Z,13.20
2017-09-24T00:53:47.359Z,13.20
2017-09-24T00:56:13.636Z,13.20
2017-09-24T00:58:40.953Z,13.20
2017-09-24T01:01:07.183Z,13.20
2017-09-24T01:03:33.445Z,13.20
2017-09-24T01:06:00.570Z,13.30
2017-09-24T01:08:26.828Z,13.30
2017-09-24T01:10:53.067Z,13.30
2017-09-24T01:13:20.394Z,13.30
2017-09-24T01:15:46.694Z,13.20
2017-09-24T01:18:13.019Z,13.30
2017-09-24T01:20:39.684Z,13.20
2017-09-24T01:23:05.954Z,13.30
2017-09-24T01:25:32.238Z,13.30
2017-09-24T01:28:00.431Z,13.20
2017-09-24T01:30:27.429Z,13.20
2017-09-24T01:32:53.667Z,13.20
2017-09-24T01:35:20.238Z,13.30
2017-09-24T01:37:46.513Z,13.30
2017-09-24T01:40:12.763Z,13.30
2017-09-24T01:42:39.468Z,13.30
2017-09-24T01:45:05.735Z,13.30
2017-09-24T01:47:32.025Z,13.30
2017-09-24T01:49:58.665Z,13.30
2017-09-24T01:52:24.958Z,13.30
2017-09-24T01:54:51.226Z,13.30
2017-09-24T01:57:17.870Z,13.30
2017-09-24T01:59:44.141Z,13.30
2017-09-24T02:02:10.394Z,13.20
2017-09-24T02:04:37.783Z,13.20
2017-09-24T02:07:04.047Z,13.30
2017-09-24T02:09:30.308Z,13.20
2017-09-24T02:11:56.870Z,13.20
2017-09-24T02:14:23.132Z,13.20
2017-09-24T02:16:49.337Z,13.30
2017-09-24T02:19:15.771Z,13.20
2017-09-24T02:21:41.987Z,13.20
2017-09-24T02:24:08.196Z,13.20
2017-09-24T02:26:35.569Z,13.10
2017-09-24T02:29:01.849Z,13.10
2017-09-24T02:31:28.071Z,13.10
2017-09-24T02:33:54.423Z,13.00
2017-09-24T02:36:20.696Z,13.00
2017-09-24T02:38:46.998Z,13.00
2017-09-24T02:41:14.338Z,13.00
2017-09-24T02:43:40.590Z,13.00
2017-09-24T02:46:07.560Z,12.90
2017-09-24T02:48:34.192Z,12.90
2017-09-24T02:51:00.392Z,13.00
2017-09-24T02:53:27.437Z,13.00
2017-09-24T02:55:54.780Z,13.10
2017-09-24T02:58:21.003Z,13.10
2017-09-24T03:00:47.237Z,13.10
2017-09-24T03:03:13.773Z,13.10
2017-09-24T03:05:40.753Z,13.20
2017-09-24T03:08:06.978Z,13.10
2017-09-24T03:10:34.298Z,13.20
2017-09-24T03:13:00.540Z,13.20
2017-09-24T03:15:26.756Z,13.20
2017-09-24T03:17:53.223Z,13.30
2017-09-24T03:20:20.228Z,13.30
2017-09-24T03:22:46.518Z,13.20
2017-09-24T03:25:13.077Z,13.20
2017-09-24T03:27:39.287Z,13.20
2017-09-24T03:30:05.527Z,13.00
2017-09-24T03:32:31.819Z,12.90
2017-09-24T03:34:58.071Z,12.80
2017-09-24T03:37:24.351Z,12.70
2017-09-24T03:39:50.634Z,12.60
2017-09-24T03:42:16.856Z,12.60
2017-09-24T03:44:43.118Z,12.50
2017-09-24T03:47:09.361Z,12.60
2017-09-24T03:49:35.654Z,12.60
2017-09-24T03:52:01.867Z,12.60
2017-09-24T03:54:28.096Z,12.60
2017-09-24T03:56:54.342Z,12.50
2017-09-24T03:59:20.546Z,12.50
2017-09-24T04:01:47.194Z,12.60
2017-09-24T04:04:13.446Z,12.50
2017-09-24T04:06:39.679Z,12.50
2017-09-24T04:09:06.227Z,12.50
2017-09-24T04:11:32.490Z,12.40
2017-09-24T04:13:59.502Z,12.40
2017-09-24T04:16:26.814Z,12.40
2017-09-24T04:18:53.031Z,12.40
2017-09-24T04:21:19.967Z,12.30
2017-09-24T04:23:47.298Z,12.30
2017-09-24T04:26:14.262Z,12.30
2017-09-24T04:28:41.210Z,12.20
2017-09-24T04:31:08.179Z,12.20
2017-09-24T04:33:34.417Z,12.20
2017-09-24T04:36:00.642Z,12.20
2017-09-24T04:38:26.922Z,12.10
2017-09-24T04:40:53.147Z,12.10
2017-09-24T04:43:19.380Z,12.10
2017-09-24T04:45:45.584Z,12.00
2017-09-24T04:48:11.854Z,11.90
2017-09-24T04:50:38.826Z,11.60
2017-09-24T04:53:05.056Z,11.60
2017-09-24T04:55:31.275Z,11.60
2017-09-24T04:57:57.521Z,11.50
2017-09-24T05:00:24.020Z,11.60
2017-09-24T05:02:50.979Z,11.70
2017-09-24T05:05:17.953Z,11.70
2017-09-24T05:07:44.175Z,11.70
2017-09-24T05:10:10.371Z,11.70
2017-09-24T05:12:37.358Z,11.60
2017-09-24T05:15:03.590Z,11.60
2017-09-24T05:17:29.798Z,11.60
2017-09-24T05:19:56.105Z,11.50
2017-09-24T05:22:23.129Z,11.50
2017-09-24T05:24:49.348Z,11.50
2017-09-24T05:27:15.647Z,11.50
2017-09-24T05:29:42.123Z,11.50
2017-09-24T05:32:08.323Z,11.50
2017-09-24T05:34:34.599Z,11.50
2017-09-24T05:37:01.931Z,11.50
2017-09-24T05:39:28.314Z,11.50
2017-09-24T05:41:54.520Z,11.50
2017-09-24T05:44:21.487Z,11.50
2017-09-24T05:46:47.726Z,11.50
2017-09-24T05:49:13.997Z,11.50
2017-09-24T05:51:40.275Z,11.50
2017-09-24T05:54:06.516Z,11.50
2017-09-24T05:56:32.721Z,11.50
2017-09-24T05:58:58.973Z,11.50
2017-09-24T06:01:25.187Z,11.50
2017-09-24T06:03:51.445Z,11.60
2017-09-24T06:06:17.738Z,11.70
2017-09-24T06:08:44.433Z,11.80
2017-09-24T06:11:10.702Z,11.80
2017-09-24T06:13:37.022Z,11.90
2017-09-24T06:16:04.134Z,12.00
2017-09-24T06:18:30.675Z,11.90
2017-09-24T06:20:56.862Z,12.00
2017-09-24T06:23:24.100Z,12.00
2017-09-24T06:25:50.451Z,12.00
2017-09-24T06:28:16.731Z,12.00
2017-09-24T06:30:43.725Z,12.00
2017-09-24T06:33:09.967Z,11.90
2017-09-24T06:35:36.216Z,11.90
2017-09-24T06:38:02.533Z,11.80
2017-09-24T06:40:28.857Z,11.80
2017-09-24T06:42:55.141Z,11.80
2017-09-24T06:45:22.129Z,11.90
2017-09-24T06:47:48.447Z,11.90
2017-09-24T06:50:14.741Z,12.00
2017-09-24T06:52:41.742Z,12.00
2017-09-24T06:55:07.955Z,11.90
2017-09-24T06:57:34.222Z,12.00
2017-09-24T07:00:00.460Z,12.10
2017-09-24T07:02:26.698Z,12.10
2017-09-24T07:04:53.646Z,12.20
2017-09-24T07:07:20.661Z,12.20
2017-09-24T07:09:46.914Z,12.20
2017-09-24T07:12:13.121Z,12.30
2017-09-24T07:14:39.632Z,12.50
2017-09-24T07:17:05.889Z,12.60
2017-09-24T07:19:32.122Z,12.70
2017-09-24T07:21:58.382Z,12.80
2017-09-24T07:24:25.371Z,12.80
2017-09-24T07:26:51.610Z,12.90
2017-09-24T07:29:17.914Z,12.90
2017-09-24T07:31:44.169Z,13.00
2017-09-24T07:34:10.459Z,13.10
2017-09-24T07:36:36.733Z,13.30
2017-09-24T07:39:03.090Z,13.50
2017-09-24T07:41:30.047Z,13.60
2017-09-24T07:43:57.069Z,13.60
2017-09-24T07:46:23.299Z,13.60
2017-09-24T07:48:49.511Z,13.70
2017-09-24T07:51:15.821Z,13.80
2017-09-24T07:53:42.090Z,13.80
2017-09-24T07:56:08.322Z,13.90
2017-09-24T07:58:34.750Z,14.10
2017-09-24T08:01:01.011Z,14.20
2017-09-24T08:03:27.289Z,14.30
2017-09-24T08:05:53.514Z,14.50
2017-09-24T08:08:19.785Z,14.60
2017-09-24T08:10:46.773Z,14.80
2017-09-24T08:13:13.064Z,14.80
2017-09-24T08:15:40.036Z,15.20
2017-09-24T08:18:06.279Z,15.20
2017-09-24T08:20:32.523Z,15.20
2017-09-24T08:22:58.794Z,15.40
2017-09-24T08:25:25.769Z,15.50
2017-09-24T08:27:52.011Z,15.50
2017-09-24T08:30:18.270Z,15.50
2017-09-24T08:32:44.496Z,15.40
2017-09-24T08:35:11.046Z,15.50
2017-09-24T08:37:37.254Z,15.50
2017-09-24T08:40:03.491Z,15.60
2017-09-24T08:42:29.783Z,15.60
2017-09-24T08:44:56.015Z,15.60
2017-09-24T08:47:22.273Z,15.70
2017-09-24T08:49:48.541Z,15.80
2017-09-24T08:52:15.527Z,15.90
2017-09-24T08:54:41.948Z,15.80
2017-09-24T08:57:08.234Z,15.80
2017-09-24T08:59:35.265Z,15.90
2017-09-24T09:02:01.497Z,15.90
2017-09-24T09:04:27.702Z,15.90
2017-09-24T09:06:53.921Z,15.90
2017-09-24T09:09:20.137Z,16.00
2017-09-24T09:11:46.734Z,16.00
2017-09-24T09:14:13.786Z,16.00
2017-09-24T09:16:40.763Z,16.10
2017-09-24T09:19:07.045Z,16.10
2017-09-24T09:21:45.128Z,16.20
2017-09-24T09:24:11.689Z,16.20
2017-09-24T09:26:37.934Z,16.30
2017-09-24T09:29:04.868Z,16.40
2017-09-24T09:31:31.907Z,16.50
2017-09-24T09:33:58.190Z,16.50
2017-09-24T09:36:24.447Z,16.50
2017-09-24T09:38:50.752Z,16.60
2017-09-24T09:41:17.002Z,16.60
2017-09-24T09:43:45.001Z,16.60
2017-09-24T09:46:23.873Z,16.60
2017-09-24T09:48:50.144Z,16.70
2017-09-24T09:51:16.419Z,16.80
2017-09-24T09:53:42.729Z,17.00
2017-09-24T09:56:09.658Z,17.70
2017-09-24T09:58:35.875Z,17.70
2017-09-24T10:01:02.159Z,18.00
2017-09-24T10:03:28.385Z,18.30
2017-09-24T10:05:54.653Z,18.70
2017-09-24T10:08:33.054Z,18.80
2017-09-24T10:10:59.307Z,18.80
2017-09-24T10:13:25.611Z,18.80
2017-09-24T10:15:52.180Z,18.90
2017-09-24T10:18:18.503Z,19.10
2017-09-24T10:20:44.758Z,19.20
2017-09-24T10:23:12.133Z,19.30
2017-09-24T10:25:38.442Z,19.30
2017-09-24T10:28:18.005Z,19.20
2017-09-24T10:30:59.959Z,19.10
2017-09-24T10:33:26.500Z,19.10
2017-09-24T10:35:52.761Z,19.10
2017-09-24T10:38:19.751Z,18.90
2017-09-24T10:40:46.009Z,18.90
2017-09-24T10:43:13.031Z,19.00
2017-09-24T10:45:39.278Z,19.00
2017-09-24T10:48:05.600Z,19.00
2017-09-24T10:50:31.858Z,19.10
2017-09-24T10:52:58.794Z,19.00
2017-09-24T10:55:25.000Z,19.00
2017-09-24T10:57:51.540Z,19.00
2017-09-24T11:00:18.566Z,18.80
2017-09-24T11:02:44.791Z,18.80
2017-09-24T11:05:11.050Z,18.80
2017-09-24T11:07:37.337Z,18.70
2017-09-24T11:10:03.536Z,18.70
2017-09-24T11:12:30.515Z,18.60
2017-09-24T11:14:56.739Z,18.60
2017-09-24T11:17:23.022Z,18.60
2017-09-24T11:19:50.413Z,18.60
2017-09-24T11:22:16.691Z,18.60
2017-09-24T11:24:42.984Z,18.60
2017-09-24T11:27:09.397Z,18.60
2017-09-24T11:29:35.587Z,18.60
2017-09-24T11:32:02.550Z,18.60
2017-09-24T11:34:29.541Z,18.50
2017-09-24T11:36:55.762Z,18.50
2017-09-24T11:39:22.061Z,18.50
2017-09-24T11:41:49.086Z,18.50
2017-09-24T11:44:15.317Z,18.50
2017-09-24T11:46:41.519Z,18.50
2017-09-24T11:49:07.741Z,18.60
2017-09-24T11:51:34.002Z,18.60
2017-09-24T11:54:00.253Z,18.60
2017-09-24T11:56:26.511Z,18.70
2017-09-24T11:58:52.866Z,18.70
2017-09-24T12:01:19.112Z,18.70
2017-09-24T12:03:45.802Z,18.70
2017-09-24T12:06:12.057Z,18.70
2017-09-24T12:08:38.339Z,18.80
2017-09-24T12:11:05.294Z,19.00
2017-09-24T12:13:31.468Z,19.00
2017-09-24T12:15:57.717Z,19.20
2017-09-24T12:18:23.997Z,19.40
2017-09-24T12:20:50.242Z,19.60
2017-09-24T12:23:16.434Z,19.80
2017-09-24T12:25:42.701Z,19.70
2017-09-24T12:28:08.957Z,19.70
2017-09-24T12:30:35.226Z,19.60
2017-09-24T12:33:01.467Z,19.60
2017-09-24T12:35:27.777Z,19.70
2017-09-24T12:37:53.996Z,19.80
2017-09-24T12:40:21.233Z,19.80
2017-09-24T12:42:47.492Z,19.80
2017-09-24T12:45:13.766Z,19.80
2017-09-24T12:47:40.057Z,19.80
2017-09-24T12:50:06.267Z,19.80
2017-09-24T12:52:33.246Z,19.90
2017-09-24T12:54:59.562Z,19.90
2017-09-24T12:57:25.889Z,20.00
2017-09-24T12:59:52.173Z,20.10
2017-09-24T13:02:18.446Z,20.30
2017-09-24T13:04:44.723Z,20.50
2017-09-24T13:07:10.914Z,20.60
2017-09-24T13:09:37.185Z,20.90
2017-09-24T13:12:03.435Z,21.20
2017-09-24T13:14:29.653Z,21.40
2017-09-24T13:16:56.190Z,21.50
2017-09-24T13:19:22.461Z,21.60
2017-09-24T13:21:48.662Z,21.60
2017-09-24T13:24:15.671Z,21.40
2017-09-24T13:26:41.930Z,21.40
2017-09-24T13:29:08.953Z,21.10
2017-09-24T13:31:35.217Z,21.10
2017-09-24T13:34:02.200Z,21.10
2017-09-24T13:36:28.490Z,21.10
2017-09-24T13:38:55.497Z,21.10
2017-09-24T13:41:21.786Z,21.10
2017-09-24T13:43:48.089Z,21.30
2017-09-24T13:46:15.051Z,22.10
2017-09-24T13:48:42.079Z,22.40
2017-09-24T13:51:08.330Z,22.30
2017-09-24T13:53:35.702Z,22.60
2017-09-24T13:56:01.979Z,22.60
2017-09-24T13:58:28.269Z,22.70
2017-09-24T14:00:54.519Z,22.70
2017-09-24T14:03:20.786Z,22.70
2017-09-24T14:05:47.824Z,22.30
2017-09-24T14:08:14.048Z,22.30
2017-09-24T14:10:40.273Z,22.00
2017-09-24T14:13:06.526Z,21.60
2017-09-24T14:15:33.697Z,21.10
2017-09-24T14:17:59.975Z,21.10
2017-09-24T14:20:26.258Z,20.90
2017-09-24T14:22:52.529Z,20.80
2017-09-24T14:25:18.724Z,20.70
2017-09-24T14:27:45.074Z,20.70
2017-09-24T14:30:11.483Z,20.80
2017-09-24T14:32:37.741Z,21.20
2017-09-24T14:35:03.999Z,21.70
2017-09-24T14:37:30.787Z,22.20
2017-09-24T14:39:57.063Z,22.40
2017-09-24T14:42:23.293Z,22.50
2017-09-24T14:44:49.718Z,22.50
2017-09-24T14:47:16.011Z,22.50
2017-09-24T14:49:42.333Z,22.50
2017-09-24T14:52:09.084Z,22.60
2017-09-24T14:54:35.423Z,22.50
2017-09-24T14:57:01.719Z,22.30
2017-09-24T14:59:28.774Z,21.70
2017-09-24T15:01:55.241Z,21.70
2017-09-24T15:04:21.534Z,21.40
2017-09-24T15:06:49.207Z,21.40
2017-09-24T15:09:15.444Z,21.20
2017-09-24T15:11:41.762Z,21.10
2017-09-24T15:14:08.526Z,20.80
2017-09-24T15:16:34.784Z,20.60
2017-09-24T15:19:01.075Z,20.50
2017-09-24T15:21:28.131Z,20.30
2017-09-24T15:23:54.394Z,20.20
2017-09-24T15:26:20.686Z,20.10
2017-09-24T15:28:48.399Z,20.00
2017-09-24T15:31:14.679Z,19.90
2017-09-24T15:33:40.994Z,19.80
2017-09-24T15:36:08.211Z,19.70
2017-09-24T15:38:34.447Z,19.60
2017-09-24T15:41:00.700Z,19.50
2017-09-24T15:43:27.346Z,19.40
2017-09-24T15:45:53.624Z,19.30
2017-09-24T15:48:19.926Z,19.30
2017-09-24T15:50:46.191Z,19.20
2017-09-24T15:53:12.518Z,19.10
2017-09-24T15:55:38.758Z,19.10
2017-09-24T15:58:05.398Z,19.00
2017-09-24T16:00:31.626Z,19.00
2017-09-24T16:02:58.159Z,18.90
2017-09-24T16:05:25.611Z,18.80
2017-09-24T16:07:51.906Z,18.80
2017-09-24T16:10:18.167Z,18.80
2017-09-24T16:12:44.406Z,18.70
2017-09-24T16:15:10.678Z,18.70
2017-09-24T16:17:36.901Z,18.60
2017-09-24T16:20:03.265Z,18.50
2017-09-24T16:22:29.574Z,18.40
2017-09-24T16:24:55.819Z,18.40
2017-09-24T16:27:22.129Z,18.30
2017-09-24T16:29:48.387Z,18.30
2017-09-24T16:32:14.579Z,18.20
2017-09-24T16:34:41.158Z,18.20
2017-09-24T16:37:07.379Z,18.10
2017-09-24T16:39:33.673Z,18.10
2017-09-24T16:42:00.267Z,18.00
2017-09-24T16:44:26.439Z,17.80
2017-09-24T16:46:52.677Z,17.70
2017-09-24T16:49:18.963Z,17.70
2017-09-24T16:51:45.946Z,17.60
2017-09-24T16:54:12.208Z,17.50
2017-09-24T16:56:38.478Z,17.50
2017-09-24T16:59:05.505Z,17.30
2017-09-24T17:01:32.186Z,17.30
2017-09-24T17:03:58.457Z,17.20
2017-09-24T17:06:24.728Z,17.10
2017-09-24T17:08:51.677Z,16.90
2017-09-24T17:11:18.676Z,16.80
2017-09-24T17:13:45.333Z,16.80
2017-09-24T17:16:11.617Z,16.70
2017-09-24T17:18:37.811Z,16.70
2017-09-24T17:21:04.803Z,16.60
2017-09-24T17:23:31.045Z,16.50
2017-09-24T17:25:57.696Z,16.60
2017-09-24T17:28:24.837Z,16.40
2017-09-24T17:30:51.112Z,16.40
2017-09-24T17:33:17.412Z,16.40
2017-09-24T17:35:43.635Z,16.30
2017-09-24T17:38:10.229Z,16.20
2017-09-24T17:40:36.473Z,16.10
2017-09-24T17:43:02.729Z,16.10
2017-09-24T17:45:28.998Z,16.10
2017-09-24T17:47:55.967Z,16.00
2017-09-24T17:50:22.207Z,16.00
2017-09-24T17:52:48.471Z,16.00
2017-09-24T17:55:14.679Z,15.90
2017-09-24T17:57:41.257Z,15.90
2017-09-24T18:00:08.220Z,15.70
2017-09-24T18:02:34.489Z,15.70
2017-09-24T18:05:01.159Z,15.60
2017-09-24T18:07:27.547Z,15.60
2017-09-24T18:09:53.779Z,15.50
2017-09-24T18:12:19.979Z,15.50
2017-09-24T18:14:46.863Z,15.40
2017-09-24T18:17:13.438Z,15.30
2017-09-24T18:19:40.457Z,15.10
2017-09-24T18:22:06.846Z,15.10
2017-09-24T18:24:33.149Z,15.10
2017-09-24T18:27:00.135Z,15.10
2017-09-24T18:29:26.844Z,15.00
2017-09-24T18:31:53.083Z,15.10
2017-09-24T18:34:19.347Z,15.10
2017-09-24T18:36:45.651Z,15.00
2017-09-24T18:39:11.951Z,14.90
2017-09-24T18:41:39.347Z,14.70
2017-09-24T18:44:05.624Z,14.60
2017-09-24T18:46:31.893Z,14.70
2017-09-24T18:48:58.180Z,14.60
2017-09-24T18:51:24.493Z,14.60
2017-09-24T18:53:51.071Z,14.60
2017-09-24T18:56:18.162Z,14.50
2017-09-24T18:58:44.475Z,14.50
2017-09-24T19:01:11.022Z,14.50
2017-09-24T19:03:37.432Z,14.40
2017-09-24T19:06:03.671Z,14.30
2017-09-24T19:08:30.256Z,14.30
2017-09-24T19:10:56.678Z,14.20
2017-09-24T19:13:22.913Z,14.20
2017-09-24T19:15:49.165Z,14.20
2017-09-24T19:18:16.952Z,14.10
2017-09-24T19:20:43.230Z,14.10
2017-09-24T19:23:09.630Z,14.10
2017-09-24T19:25:36.521Z,14.00
2017-09-24T19:28:02.875Z,14.00
2017-09-24T19:30:29.108Z,13.90
2017-09-24T19:32:56.650Z,13.80
2017-09-24T19:35:23.686Z,13.80
2017-09-24T19:37:49.969Z,13.70
2017-09-24T19:40:16.874Z,13.70
2017-09-24T19:42:43.925Z,13.70
2017-09-24T19:45:10.990Z,13.70
2017-09-24T19:47:37.370Z,13.60
2017-09-24T19:50:03.600Z,13.50
2017-09-24T19:52:29.852Z,13.50
2017-09-24T19:54:56.238Z,13.50
2017-09-24T19:57:22.563Z,13.40
2017-09-24T19:59:48.900Z,13.40
2017-09-24T20:02:15.141Z,13.40
2017-09-24T20:04:41.414Z,13.30
2017-09-24T20:07:08.792Z,13.30
2017-09-24T20:09:35.051Z,13.30
2017-09-24T20:12:01.297Z,13.20
2017-09-24T20:14:27.606Z,13.20
2017-09-24T20:16:53.806Z,13.20
2017-09-24T20:19:20.081Z,13.20
2017-09-24T20:21:46.474Z,13.10
2017-09-24T20:24:12.708Z,13.00
2017-09-24T20:26:38.975Z,13.00
2017-09-24T20:29:06.519Z,13.00
2017-09-24T20:31:33.184Z,13.00
2017-09-24T20:33:59.478Z,12.90
2017-09-24T20:36:25.766Z,12.80
2017-09-24T20:38:52.758Z,12.80
2017-09-24T20:41:19.022Z,12.70
2017-09-24T20:43:45.347Z,12.70
2017-09-24T20:46:11.674Z,12.70
2017-09-24T20:48:37.929Z,12.70
2017-09-24T20:51:04.958Z,12.70
2017-09-24T20:53:31.175Z,12.70
2017-09-24T20:55:57.762Z,12.70
2017-09-24T20:58:23.979Z,12.60
2017-09-24T21:00:50.938Z,12.60
2017-09-24T21:03:17.174Z,12.60
2017-09-24T21:05:43.478Z,12.60
2017-09-24T21:08:10.410Z,12.60
2017-09-24T21:10:36.663Z,12.60
2017-09-24T21:13:03.644Z,12.50
2017-09-24T21:15:29.909Z,12.50
2017-09-24T21:17:56.930Z,12.50
2017-09-24T21:20:23.631Z,12.40
2017-09-24T21:22:49.877Z,12.50
2017-09-24T21:25:16.161Z,12.40
2017-09-24T21:27:43.209Z,12.20
2017-09-24T21:30:10.202Z,12.20
2017-09-24T21:32:36.465Z,12.20
2017-09-24T21:35:02.723Z,12.10
2017-09-24T21:37:29.718Z,12.00
2017-09-24T21:39:55.992Z,12.00
2017-09-24T21:42:23.015Z,11.80
2017-09-24T21:44:49.664Z,11.80
2017-09-24T21:47:15.880Z,11.70
2017-09-24T21:49:42.161Z,11.70
2017-09-24T21:52:08.480Z,11.70
2017-09-24T21:54:34.773Z,11.60
2017-09-24T21:57:01.077Z,11.70
2017-09-24T21:59:27.366Z,11.80
2017-09-24T22:01:53.646Z,11.80
2017-09-24T22:04:19.849Z,11.80
2017-09-24T22:06:46.052Z,11.80
2017-09-24T22:09:13.487Z,11.70
2017-09-24T22:11:40.480Z,11.70
2017-09-24T22:14:06.736Z,11.70
2017-09-24T22:16:33.005Z,11.60
2017-09-24T22:18:59.967Z,11.60
2017-09-24T22:21:26.249Z,11.60
2017-09-24T22:23:52.502Z,11.60
2017-09-24T22:26:18.748Z,11.50
2017-09-24T22:28:45.026Z,11.50
2017-09-24T22:31:11.262Z,11.40
2017-09-24T22:33:37.901Z,11.40
2017-09-24T22:36:04.845Z,11.30
2017-09-24T22:38:31.070Z,11.30
2017-09-24T22:40:57.687Z,11.30
2017-09-24T22:43:23.882Z,11.30
2017-09-24T22:45:50.830Z,11.20
2017-09-24T22:48:18.157Z,11.20
2017-09-24T22:50:44.458Z,11.20
2017-09-24T22:53:10.690Z,11.20
2017-09-24T22:55:37.358Z,11.20
2017-09-24T22:58:03.570Z,11.10
2017-09-24T23:00:30.537Z,11.00
2017-09-24T23:02:57.205Z,11.00
2017-09-24T23:05:23.455Z,11.00
2017-09-24T23:07:49.756Z,11.10
2017-09-24T23:10:16.367Z,11.10
2017-09-24T23:12:42.585Z,11.00
2017-09-24T23:15:08.805Z,11.00
2017-09-24T23:17:36.176Z,11.00
2017-09-24T23:20:02.424Z,11.00
2017-09-24T23:22:29.431Z,10.90
2017-09-24T23:24:56.026Z,10.90
2017-09-24T23:27:22.297Z,10.90
2017-09-24T23:29:48.500Z,10.90
2017-09-24T23:32:15.131Z,10.80
2017-09-24T23:34:41.383Z,10.80
2017-09-24T23:37:07.643Z,10.80
2017-09-24T23:39:35.036Z,10.80
2017-09-24T23:42:01.299Z,10.80
2017-09-24T23:44:27.565Z,10.80
2017-09-24T23:46:54.913Z,10.80
2017-09-24T23:49:21.918Z,10.70
2017-09-24T23:51:48.168Z,10.70
2017-09-24T23:54:14.825Z,10.60
2017-09-24T23:56:41.041Z,10.50
